createdAt,value
2018-07-21T00:01:25.351Z,7.17
2018-07-21T00:06:09.302Z,7.00
2018-07-21T00:10:53.542Z,9.47
2018-07-21T00:15:37.968Z,7.33
2018-07-21T00:20:22.399Z,7.83
2018-07-21T00:25:06.702Z,7.70
2018-07-21T00:29:51.090Z,7.33
2018-07-21T00:34:35.610Z,6.40
2018-07-21T00:39:19.985Z,6.93
2018-07-21T00:44:04.306Z,7.00
2018-07-21T00:48:48.782Z,8.70
2018-07-21T00:53:33.169Z,8.30
2018-07-21T00:58:17.445Z,7.13
2018-07-21T01:03:01.765Z,6.93
2018-07-21T01:07:46.142Z,6.60
2018-07-21T01:12:30.750Z,7.07
2018-07-21T01:17:15.082Z,6.97
2018-07-21T01:21:59.421Z,8.20
2018-07-21T01:26:43.783Z,7.53
2018-07-21T01:31:28.122Z,7.20
2018-07-21T01:36:12.697Z,7.53
2018-07-21T01:40:57.083Z,8.23
2018-07-21T01:45:41.539Z,7.23
2018-07-21T01:50:25.954Z,8.57
2018-07-21T01:55:10.281Z,8.97
2018-07-21T01:59:54.654Z,7.63
2018-07-21T02:04:39.022Z,7.83
2018-07-21T02:09:23.578Z,8.27
2018-07-21T02:14:08.259Z,7.47
2018-07-21T02:18:52.618Z,8.50
2018-07-21T02:23:37.002Z,8.07
2018-07-21T02:28:21.370Z,8.40
2018-07-21T02:33:05.672Z,7.40
2018-07-21T02:37:50.023Z,7.83
2018-07-21T02:42:34.328Z,7.70
2018-07-21T02:47:18.738Z,7.73
2018-07-21T02:52:03.116Z,8.90
2018-07-21T02:56:47.405Z,8.07
2018-07-21T03:01:31.749Z,7.93
2018-07-21T03:06:16.195Z,7.83
2018-07-21T03:11:00.554Z,7.83
2018-07-21T03:15:44.901Z,8.40
2018-07-21T03:20:29.302Z,8.40
2018-07-21T03:25:13.618Z,8.90
2018-07-21T03:29:58.001Z,8.93
2018-07-21T03:34:42.623Z,9.23
2018-07-21T03:39:26.938Z,9.27
2018-07-21T03:44:11.217Z,9.03
2018-07-21T03:48:55.530Z,7.90
2018-07-21T03:53:39.885Z,10.03
2018-07-21T03:58:24.268Z,8.77
2018-07-21T04:03:08.578Z,8.60
2018-07-21T04:07:52.881Z,9.10
2018-07-21T04:12:37.235Z,9.40
2018-07-21T04:17:24.668Z,8.97
2018-07-21T04:22:09.206Z,8.63
2018-07-21T04:26:53.545Z,9.83
2018-07-21T04:31:37.874Z,8.30
2018-07-21T04:36:22.268Z,7.17
2018-07-21T04:41:06.694Z,6.97
2018-07-21T04:45:51.154Z,7.20
2018-07-21T04:50:35.619Z,7.60
2018-07-21T04:55:19.952Z,7.27
2018-07-21T05:00:04.874Z,6.50
2018-07-21T05:04:49.404Z,6.70
2018-07-21T05:09:33.874Z,7.37
2018-07-21T05:14:18.230Z,6.40
2018-07-21T05:19:02.598Z,6.83
2018-07-21T05:23:46.995Z,6.80
2018-07-21T05:28:31.407Z,5.83
2018-07-21T05:33:15.866Z,6.43
2018-07-21T05:38:00.251Z,6.60
2018-07-21T05:42:44.700Z,8.07
2018-07-21T05:47:29.069Z,6.90
2018-07-21T05:52:13.441Z,7.37
2018-07-21T05:56:57.863Z,7.37
2018-07-21T06:01:42.224Z,7.93
2018-07-21T06:06:26.559Z,7.30
2018-07-21T06:11:10.700Z,6.53
2018-07-21T06:15:54.969Z,7.10
2018-07-21T06:20:39.296Z,6.60
2018-07-21T06:25:23.727Z,7.00
2018-07-21T06:30:08.229Z,10.30
2018-07-21T06:34:52.336Z,48.60
2018-07-21T06:39:36.752Z,81.13
2018-07-21T06:44:21.488Z,104.20
2018-07-21T06:49:06.150Z,89.13
2018-07-21T06:53:50.528Z,113.07
2018-07-21T06:58:34.959Z,107.53
2018-07-21T07:03:19.393Z,88.17
2018-07-21T07:08:03.881Z,71.70
2018-07-21T07:12:48.263Z,62.07
2018-07-21T07:17:32.388Z,61.23
2018-07-21T07:22:16.685Z,52.97
2018-07-21T07:27:01.136Z,54.27
2018-07-21T07:31:45.508Z,40.53
2018-07-21T07:36:29.897Z,31.40
2018-07-21T07:41:14.329Z,29.67
2018-07-21T07:45:58.687Z,32.83
2018-07-21T07:50:43.046Z,27.75
2018-07-21T07:55:33.465Z,32.08
2018-07-21T08:00:17.884Z,26.75
2018-07-21T08:05:02.320Z,28.50
2018-07-21T08:09:47.745Z,17.75
2018-07-21T08:14:32.306Z,8.70
2018-07-21T08:19:16.760Z,10.45
2018-07-21T08:24:01.091Z,7.55
2018-07-21T08:28:45.478Z,6.70
2018-07-21T08:33:29.485Z,9.48
2018-07-21T08:38:13.786Z,6.60
2018-07-21T08:42:58.612Z,6.22
2018-07-21T08:47:42.953Z,6.22
2018-07-21T08:52:27.599Z,6.28
2018-07-21T08:57:11.932Z,6.47
2018-07-21T09:01:56.329Z,6.05
2018-07-21T09:06:40.789Z,7.47
2018-07-21T09:11:25.160Z,6.37
2018-07-21T09:16:09.567Z,6.20
2018-07-21T09:20:53.980Z,5.90
2018-07-21T09:25:38.477Z,6.75
2018-07-21T09:30:22.865Z,6.40
2018-07-21T09:35:07.234Z,7.28
2018-07-21T09:39:51.687Z,5.67
2018-07-21T09:44:36.171Z,5.58
2018-07-21T09:49:20.521Z,5.60
2018-07-21T09:54:04.922Z,6.12
2018-07-21T09:58:49.289Z,5.67
2018-07-21T10:03:34.690Z,5.33
2018-07-21T10:08:19.056Z,5.55
2018-07-21T10:13:03.489Z,6.95
2018-07-21T10:17:50.409Z,8.93
2018-07-21T10:22:35.431Z,7.50
2018-07-21T10:27:19.899Z,7.35
2018-07-21T10:32:04.342Z,5.58
2018-07-21T10:36:48.774Z,5.53
2018-07-21T10:41:33.142Z,5.62
2018-07-21T10:46:17.528Z,7.25
2018-07-21T10:51:01.912Z,6.47
2018-07-21T10:55:46.279Z,6.83
2018-07-21T11:00:30.727Z,5.80
2018-07-21T11:05:15.277Z,5.50
2018-07-21T11:10:00.390Z,6.50
2018-07-21T11:14:44.872Z,6.22
2018-07-21T11:19:29.467Z,6.20
2018-07-21T11:24:13.970Z,6.67
2018-07-21T11:28:58.425Z,8.18
2018-07-21T11:33:43.009Z,5.50
2018-07-21T11:38:27.620Z,5.97
2018-07-21T11:43:12.255Z,5.83
2018-07-21T11:47:56.799Z,6.62
2018-07-21T11:52:41.259Z,6.47
2018-07-21T11:57:25.877Z,6.45
2018-07-21T12:02:10.321Z,9.30
2018-07-21T12:06:55.485Z,5.67
2018-07-21T12:11:40.259Z,6.33
2018-07-21T12:16:24.777Z,7.22
2018-07-21T12:21:09.154Z,6.78
2018-07-21T12:25:53.713Z,6.10
2018-07-21T12:30:38.317Z,7.00
2018-07-21T12:35:22.898Z,7.03
2018-07-21T12:40:07.843Z,7.62
2018-07-21T12:44:52.272Z,6.90
2018-07-21T12:49:36.661Z,6.50
2018-07-21T12:54:20.671Z,6.67
2018-07-21T12:59:05.678Z,6.70
2018-07-21T13:03:50.510Z,7.12
2018-07-21T13:08:34.950Z,6.58
2018-07-21T13:13:19.452Z,7.33
2018-07-21T13:18:03.826Z,7.58
2018-07-21T13:22:48.246Z,6.67
2018-07-21T13:27:32.372Z,6.10
2018-07-21T13:32:16.836Z,8.10
2018-07-21T13:37:01.289Z,7.30
2018-07-21T13:41:49.037Z,6.80
2018-07-21T13:46:34.341Z,6.83
2018-07-21T13:51:18.872Z,6.80
2018-07-21T13:56:03.349Z,6.72
2018-07-21T14:00:47.942Z,7.58
2018-07-21T14:05:32.405Z,6.47
2018-07-21T14:10:16.977Z,6.75
2018-07-21T14:15:01.602Z,6.70
2018-07-21T14:19:46.178Z,7.30
2018-07-21T14:24:30.735Z,7.23
2018-07-21T14:29:15.243Z,8.38
2018-07-21T14:33:59.892Z,8.85
2018-07-21T14:38:44.409Z,6.25
2018-07-21T14:43:29.126Z,7.23
2018-07-21T14:48:13.711Z,6.70
2018-07-21T14:52:58.488Z,6.20
2018-07-21T14:57:43.756Z,6.60
2018-07-21T15:02:28.347Z,6.73
2018-07-21T15:07:12.930Z,8.40
2018-07-21T15:11:57.506Z,6.60
2018-07-21T15:16:42.007Z,6.70
2018-07-21T15:21:26.457Z,6.57
2018-07-21T15:26:10.902Z,6.70
2018-07-21T15:30:55.531Z,7.00
2018-07-21T15:35:40.184Z,6.00
2018-07-21T15:40:24.719Z,5.93
2018-07-21T15:45:09.510Z,5.90
2018-07-21T15:49:53.930Z,5.90
2018-07-21T15:54:38.710Z,6.47
2018-07-21T15:59:23.256Z,6.37
2018-07-21T16:04:07.779Z,6.03
2018-07-21T16:08:52.397Z,6.57
2018-07-21T16:13:36.979Z,6.80
2018-07-21T16:18:21.477Z,5.93
2018-07-21T16:23:06.032Z,6.20
2018-07-21T16:27:50.432Z,5.47
2018-07-21T16:32:35.379Z,7.87
2018-07-21T16:37:20.854Z,7.23
2018-07-21T16:42:05.356Z,5.53
2018-07-21T16:46:49.756Z,5.70
2018-07-21T16:51:34.146Z,6.17
2018-07-21T16:56:18.854Z,6.03
2018-07-21T17:01:03.277Z,5.70
2018-07-21T17:05:47.715Z,6.00
2018-07-21T17:10:32.143Z,5.53
2018-07-21T17:15:16.569Z,7.13
2018-07-21T17:20:00.949Z,6.43
2018-07-21T17:24:45.359Z,6.40
2018-07-21T17:29:30.820Z,6.03
2018-07-21T17:34:15.298Z,7.43
2018-07-21T17:38:59.732Z,5.70
2018-07-21T17:43:44.187Z,7.13
2018-07-21T17:48:28.568Z,7.57
2018-07-21T17:53:12.991Z,5.23
2018-07-21T17:57:57.394Z,5.03
2018-07-21T18:02:41.806Z,5.50
2018-07-21T18:07:26.383Z,8.13
2018-07-21T18:12:10.665Z,5.47
2018-07-21T18:16:55.013Z,5.47
2018-07-21T18:21:39.441Z,6.27
2018-07-21T18:26:23.887Z,9.40
2018-07-21T18:31:08.469Z,6.40
2018-07-21T18:35:52.843Z,5.20
2018-07-21T18:40:37.213Z,6.17
2018-07-21T18:45:21.700Z,8.50
2018-07-21T18:50:06.153Z,5.50
2018-07-21T18:54:50.560Z,6.00
2018-07-21T18:59:35.050Z,5.53
2018-07-21T19:04:19.424Z,6.40
2018-07-21T19:09:05.928Z,6.43
2018-07-21T19:13:50.384Z,5.67
2018-07-21T19:18:34.928Z,5.90
2018-07-21T19:23:19.434Z,6.17
2018-07-21T19:28:04.172Z,6.00
2018-07-21T19:32:54.084Z,6.33
2018-07-21T19:37:43.999Z,7.80
2018-07-21T19:42:28.462Z,6.30
2018-07-21T19:47:12.990Z,6.97
2018-07-21T19:51:57.835Z,7.23
2018-07-21T19:56:42.910Z,7.33
2018-07-21T20:01:27.550Z,6.30
2018-07-21T20:06:12.014Z,8.67
2018-07-21T20:10:56.651Z,6.47
2018-07-21T20:15:41.381Z,7.30
2018-07-21T20:20:27.781Z,7.60
2018-07-21T20:25:16.426Z,7.63
2018-07-21T20:30:01.032Z,6.63
2018-07-21T20:34:45.640Z,6.43
2018-07-21T20:39:30.194Z,8.43
2018-07-21T20:44:14.830Z,7.37
2018-07-21T20:48:59.469Z,6.97
2018-07-21T20:53:44.168Z,6.50
2018-07-21T20:58:28.813Z,8.30
2018-07-21T21:03:13.353Z,8.80
2018-07-21T21:07:58.502Z,7.87
2018-07-21T21:12:44.436Z,7.10
2018-07-21T21:17:29.836Z,8.90
2018-07-21T21:22:14.802Z,7.80
2018-07-21T21:26:59.804Z,6.20
2018-07-21T21:31:45.116Z,7.77
2018-07-21T21:36:30.323Z,7.97
2018-07-21T21:41:14.957Z,6.73
2018-07-21T21:45:59.426Z,8.33
2018-07-21T21:50:43.915Z,7.47
2018-07-21T21:55:28.361Z,7.67
2018-07-21T22:00:13.482Z,9.37
2018-07-21T22:04:58.020Z,7.30
2018-07-21T22:09:42.512Z,8.03
2018-07-21T22:14:26.903Z,9.13
2018-07-21T22:19:11.245Z,10.07
2018-07-21T22:23:55.747Z,7.43
2018-07-21T22:28:40.087Z,8.80
2018-07-21T22:33:24.393Z,7.10
2018-07-21T22:38:08.904Z,7.67
2018-07-21T22:42:53.419Z,8.60
2018-07-21T22:47:37.991Z,7.97
2018-07-21T22:52:22.350Z,8.43
2018-07-21T22:57:06.729Z,6.93
2018-07-21T23:01:51.051Z,8.00
2018-07-21T23:06:35.387Z,7.97
2018-07-21T23:11:19.702Z,7.93
2018-07-21T23:16:04.215Z,8.57
2018-07-21T23:20:48.585Z,8.00
2018-07-21T23:25:32.931Z,10.20
2018-07-21T23:30:17.242Z,7.20
2018-07-21T23:35:01.621Z,7.30
2018-07-21T23:39:46.018Z,7.43
2018-07-21T23:44:30.319Z,8.10
2018-07-21T23:49:14.930Z,9.83
2018-07-21T23:53:59.429Z,9.43
2018-07-21T23:58:43.745Z,7.33
